Time;durP1;ratioP1;P1;durP2;ratioP2;P2;SDS_P1;SDS_P2;PMS_P1;PMS_P2;Temp;Humidity;BMP_temperature;BMP_pressure;BME280_temperature;BME280_humidity;BME280_pressure;Samples;Min_cycle;Max_cycle;Signal;HPM_P1;HPM_P2
2022/04/14 00:00:25;;;;;;;2.60;2.20;;;15.70;99.90;;;;;;7395214;19;20159;-78
2022/04/14 00:02:51;;;;;;;3.03;2.00;;;15.80;99.90;;;;;;7397193;19;20614;-79
2022/04/14 00:05:17;;;;;;;4.63;2.15;;;15.70;99.90;;;;;;7393543;19;20163;-80
2022/04/14 00:07:44;;;;;;;4.15;2.20;;;15.70;99.90;;;;;;7395261;19;20142;-81
2022/04/14 00:10:11;;;;;;;4.63;2.17;;;15.80;99.90;;;;;;7396873;19;20149;-79
2022/04/14 00:12:37;;;;;;;3.28;2.03;;;15.50;99.90;;;;;;7392323;19;20518;-80
2022/04/14 00:15:04;;;;;;;3.35;2.10;;;15.40;99.90;;;;;;7392462;19;20134;-81
2022/04/14 00:17:35;;;;;;;2.88;2.00;;;15.60;99.90;;;;;;7393969;19;20490;-77
2022/04/14 00:20:02;;;;;;;3.60;2.10;;;15.50;99.90;;;;;;7394725;19;20138;-78
2022/04/14 00:22:28;;;;;;;5.53;2.17;;;15.30;99.90;;;;;;7396296;19;20155;-77
2022/04/14 00:24:54;;;;;;;4.00;2.13;;;15.30;99.90;;;;;;7394355;19;20169;-80
2022/04/14 00:27:20;;;;;;;3.65;2.28;;;15.50;99.90;;;;;;7392332;19;20135;-77
2022/04/14 00:29:47;;;;;;;4.05;2.42;;;15.60;99.90;;;;;;7394909;19;20479;-77
2022/04/14 00:32:12;;;;;;;3.58;2.33;;;15.50;99.90;;;;;;7394094;19;20143;-77
2022/04/14 00:34:38;;;;;;;5.35;3.10;;;15.50;99.90;;;;;;7392970;19;20147;-78
2022/04/14 00:37:04;;;;;;;4.68;2.42;;;15.60;99.90;;;;;;7393374;19;20210;-80
2022/04/14 00:39:30;;;;;;;3.03;2.20;;;15.60;99.90;;;;;;7394257;19;20145;-78
2022/04/14 00:41:56;;;;;;;3.42;1.90;;;15.60;99.90;;;;;;7393558;19;20150;-80
2022/04/14 00:44:22;;;;;;;5.57;2.58;;;15.40;99.90;;;;;;7391431;19;20129;-80
2022/04/14 00:46:48;;;;;;;7.25;2.40;;;15.30;99.90;;;;;;7397143;19;20435;-78
2022/04/14 00:49:14;;;;;;;3.83;2.65;;;14.80;99.90;;;;;;7396034;19;20146;-77
2022/04/14 00:51:40;;;;;;;4.03;2.22;;;15.00;99.90;;;;;;7393222;19;20134;-77
2022/04/14 00:54:05;;;;;;;3.55;2.13;;;15.00;99.90;;;;;;7391680;19;20122;-77
2022/04/14 00:56:31;;;;;;;3.88;2.35;;;14.90;99.90;;;;;;7395847;19;20139;-77
2022/04/14 00:58:58;;;;;;;3.50;2.10;;;14.80;99.90;;;;;;7396483;19;20146;-78
2022/04/14 01:01:24;;;;;;;4.57;2.60;;;14.70;99.90;;;;;;7390029;19;20130;-80
2022/04/14 01:03:51;;;;;;;3.55;2.28;;;14.90;99.90;;;;;;7393032;19;20477;-80
2022/04/14 01:06:23;;;;;;;4.78;2.25;;;15.00;99.90;;;;;;7392470;19;20146;-77
2022/04/14 01:11:35;;;;;;;4.93;2.55;;;14.90;99.90;;;;;;7392783;19;20134;-78
2022/04/14 01:14:01;;;;;;;4.43;2.25;;;15.10;99.90;;;;;;7389981;19;20210;-81
2022/04/14 01:16:26;;;;;;;4.60;2.20;;;15.20;99.90;;;;;;7396706;19;20152;-77
2022/04/14 01:18:52;;;;;;;3.03;2.33;;;15.10;99.90;;;;;;7395035;19;20135;-77
2022/04/14 01:21:21;;;;;;;3.22;2.33;;;15.20;99.90;;;;;;7394461;19;20130;-77
2022/04/14 01:23:50;;;;;;;3.75;2.28;;;15.20;99.90;;;;;;7391121;19;20143;-77
2022/04/14 01:26:16;;;;;;;6.00;2.25;;;14.60;99.90;;;;;;7392155;19;20138;-76
2022/04/14 01:28:41;;;;;;;4.63;2.40;;;14.40;99.90;;;;;;7393532;19;20150;-76
2022/04/14 01:31:07;;;;;;;4.05;2.17;;;14.40;99.90;;;;;;7394692;19;20155;-77
2022/04/14 01:33:33;;;;;;;5.82;2.50;;;14.20;99.90;;;;;;7393091;19;20740;-80
2022/04/14 01:35:59;;;;;;;5.45;2.55;;;14.20;99.90;;;;;;7392715;19;20143;-79
2022/04/14 01:38:24;;;;;;;4.45;2.05;;;14.10;99.90;;;;;;7394027;19;20153;-77
2022/04/14 01:40:50;;;;;;;5.22;2.00;;;14.30;99.90;;;;;;7390908;19;20497;-77
2022/04/14 01:43:16;;;;;;;2.65;2.00;;;14.50;99.90;;;;;;7390619;19;20138;-78
2022/04/14 01:45:46;;;;;;;2.75;2.08;;;14.40;99.90;;;;;;7392060;19;20137;-80
2022/04/14 01:48:12;;;;;;;4.38;2.40;;;14.40;99.90;;;;;;7390314;19;20206;-78
2022/04/14 01:50:41;;;;;;;3.17;2.15;;;14.30;99.90;;;;;;7394448;19;20507;-77
2022/04/14 01:53:06;;;;;;;5.13;2.28;;;14.50;99.90;;;;;;7395006;19;20166;-80
2022/04/14 01:55:32;;;;;;;5.90;2.13;;;14.50;99.90;;;;;;7389650;19;20235;-78
2022/04/14 01:57:58;;;;;;;5.10;2.08;;;14.50;99.90;;;;;;7388863;19;20146;-77
2022/04/14 02:00:24;;;;;;;5.55;2.17;;;14.50;99.90;;;;;;7394455;19;20181;-77
2022/04/14 02:02:50;;;;;;;3.92;2.20;;;14.50;99.90;;;;;;7392509;19;20158;-79
2022/04/14 02:05:16;;;;;;;4.85;2.00;;;14.70;99.90;;;;;;7394431;19;20130;-78
2022/04/14 02:07:41;;;;;;;4.03;2.20;;;14.50;99.90;;;;;;7392575;19;20119;-77
2022/04/14 02:10:07;;;;;;;4.05;2.10;;;14.30;99.90;;;;;;7391064;19;20136;-77
2022/04/14 02:12:34;;;;;;;4.10;2.25;;;14.20;99.90;;;;;;7385780;19;20155;-77
2022/04/14 02:15:00;;;;;;;3.78;2.65;;;14.20;99.90;;;;;;7393414;19;20126;-79
2022/04/14 02:17:26;;;;;;;6.13;2.47;;;14.00;99.90;;;;;;7388465;19;20158;-77
2022/04/14 02:19:52;;;;;;;4.18;2.47;;;14.20;99.90;;;;;;7393242;19;20214;-76
2022/04/14 02:22:18;;;;;;;3.13;2.22;;;14.40;99.90;;;;;;7392906;19;20127;-75
2022/04/14 02:24:44;;;;;;;4.95;2.53;;;14.30;99.90;;;;;;7390719;19;20210;-79
2022/04/14 02:27:10;;;;;;;3.58;2.10;;;14.40;99.90;;;;;;7389537;19;20130;-79
2022/04/14 02:29:36;;;;;;;3.65;2.47;;;14.50;99.90;;;;;;7388426;19;20142;-78
2022/04/14 02:32:02;;;;;;;3.13;2.30;;;14.20;99.90;;;;;;7389713;19;20632;-78
2022/04/14 02:34:27;;;;;;;4.40;2.13;;;14.30;99.90;;;;;;7391213;19;20161;-78
2022/04/14 02:36:54;;;;;;;4.70;2.17;;;14.30;99.90;;;;;;7399866;19;20717;-78
2022/04/14 02:39:20;;;;;;;4.00;2.42;;;14.40;99.90;;;;;;7387500;19;20142;-79
2022/04/14 02:41:46;;;;;;;4.10;2.47;;;14.50;99.90;;;;;;7386152;19;20131;-77
2022/04/14 02:44:12;;;;;;;4.50;2.38;;;14.60;99.90;;;;;;7388951;19;20137;-78
2022/04/14 02:46:37;;;;;;;4.90;2.60;;;14.40;99.90;;;;;;7386598;19;20123;-77
2022/04/14 02:49:03;;;;;;;4.38;3.00;;;14.10;99.90;;;;;;7389756;19;20127;-76
2022/04/14 02:51:30;;;;;;;5.72;2.72;;;13.90;99.90;;;;;;7387007;19;20131;-78
2022/04/14 02:53:56;;;;;;;6.03;2.38;;;14.00;99.90;;;;;;7390456;19;20191;-77
2022/04/14 02:56:21;;;;;;;4.72;2.53;;;14.00;99.90;;;;;;7390582;19;20143;-77
2022/04/14 02:58:47;;;;;;;6.88;2.65;;;13.90;99.90;;;;;;7387263;19;20586;-78
2022/04/14 03:01:13;;;;;;;4.80;2.40;;;13.70;99.90;;;;;;7388546;19;20142;-77
2022/04/14 03:03:40;;;;;;;4.32;2.70;;;13.70;99.90;;;;;;7390091;19;20134;-78
2022/04/14 03:06:06;;;;;;;4.85;2.60;;;14.00;99.90;;;;;;7385945;19;20154;-77
2022/04/14 03:08:31;;;;;;;7.20;2.70;;;14.10;99.90;;;;;;7386743;19;20143;-77
2022/04/14 03:10:57;;;;;;;5.63;2.92;;;14.10;99.90;;;;;;7388116;19;20598;-79
2022/04/14 03:13:23;;;;;;;4.07;2.58;;;14.10;99.90;;;;;;7392412;19;20126;-78
2022/04/14 03:15:50;;;;;;;6.07;2.45;;;14.00;99.90;;;;;;7388067;19;20138;-79
2022/04/14 03:18:17;;;;;;;4.93;2.53;;;13.80;99.90;;;;;;7386606;19;20513;-78
2022/04/14 03:20:43;;;;;;;5.68;2.15;;;14.00;99.90;;;;;;7387820;19;20131;-77
2022/04/14 03:23:09;;;;;;;6.43;2.67;;;14.20;99.90;;;;;;7386170;19;20138;-77
2022/04/14 03:25:35;;;;;;;9.15;2.60;;;14.00;99.90;;;;;;7393549;19;20158;-79
2022/04/14 03:28:01;;;;;;;3.97;2.72;;;14.20;99.90;;;;;;7385648;19;20123;-77
2022/04/14 03:30:26;;;;;;;6.30;3.00;;;14.40;99.90;;;;;;7387888;19;20122;-78
2022/04/14 03:32:52;;;;;;;6.82;2.97;;;14.10;99.90;;;;;;7386588;19;20173;-77
2022/04/14 03:35:18;;;;;;;4.32;3.20;;;13.80;99.90;;;;;;7390846;19;20135;-77
2022/04/14 03:37:44;;;;;;;6.72;3.55;;;13.90;99.90;;;;;;7389050;19;20130;-77
2022/04/14 03:40:11;;;;;;;5.00;3.25;;;14.00;99.90;;;;;;7385953;19;20153;-78
2022/04/14 03:42:37;;;;;;;5.43;3.45;;;14.10;99.90;;;;;;7387718;19;20150;-77
2022/04/14 03:45:07;;;;;;;5.25;3.20;;;13.80;99.90;;;;;;7387277;19;20469;-78
2022/04/14 03:47:36;;;;;;;6.00;3.03;;;14.10;99.90;;;;;;7386483;19;20130;-78
2022/04/14 03:50:03;;;;;;;6.78;3.13;;;14.20;99.90;;;;;;7389054;19;20131;-77
2022/04/14 03:52:29;;;;;;;5.50;3.08;;;14.20;99.90;;;;;;7385617;19;20157;-77
2022/04/14 03:54:55;;;;;;;8.00;3.13;;;14.30;99.90;;;;;;7386200;19;20147;-77
2022/04/14 03:57:20;;;;;;;5.50;3.20;;;14.20;99.90;;;;;;7392914;19;20133;-77
2022/04/14 03:59:46;;;;;;;7.27;3.50;;;14.00;99.90;;;;;;7388686;19;20131;-77
2022/04/14 04:02:12;;;;;;;7.03;3.05;;;14.10;99.90;;;;;;7387644;19;20154;-79
2022/04/14 04:04:38;;;;;;;5.10;3.30;;;14.20;99.90;;;;;;7386317;19;20653;-78
2022/04/14 04:07:06;;;;;;;7.90;3.55;;;14.20;99.90;;;;;;7388448;19;20134;-76
2022/04/14 04:09:33;;;;;;;4.90;3.10;;;14.30;99.90;;;;;;7387725;19;20131;-78
2022/04/14 04:12:02;;;;;;;4.25;2.88;;;14.30;99.90;;;;;;7389235;19;20139;-79
2022/04/14 04:14:28;;;;;;;5.25;3.08;;;13.70;99.90;;;;;;7387072;19;20143;-77
2022/04/14 04:16:54;;;;;;;7.03;3.42;;;13.70;99.90;;;;;;7396574;19;20167;-79
2022/04/14 04:19:21;;;;;;;6.18;3.25;;;13.90;99.90;;;;;;7391876;19;20464;-79
2022/04/14 04:21:47;;;;;;;6.40;3.22;;;13.70;99.90;;;;;;7384960;19;20214;-77
2022/04/14 04:24:13;;;;;;;5.13;3.13;;;14.00;99.90;;;;;;7387922;19;20593;-77
2022/04/14 04:26:39;;;;;;;7.07;3.70;;;14.00;99.90;;;;;;7384774;19;20142;-78
2022/04/14 04:29:04;;;;;;;6.95;3.30;;;14.00;99.90;;;;;;7384177;19;20575;-77
2022/04/14 04:31:30;;;;;;;4.95;3.35;;;14.00;99.90;;;;;;7393061;19;20657;-78
2022/04/14 04:33:56;;;;;;;7.40;3.53;;;14.00;99.90;;;;;;7384522;19;20613;-78
2022/04/14 04:36:22;;;;;;;5.53;3.20;;;13.90;99.90;;;;;;7388510;19;20137;-77
2022/04/14 04:38:47;;;;;;;5.22;3.58;;;13.70;99.90;;;;;;7393753;19;20131;-77
2022/04/14 04:41:13;;;;;;;5.50;3.17;;;14.00;99.90;;;;;;7396040;19;20147;-78
2022/04/14 04:43:39;;;;;;;4.63;3.33;;;13.90;99.90;;;;;;7390986;19;20145;-77
2022/04/14 04:46:05;;;;;;;6.10;3.60;;;14.00;99.90;;;;;;7392011;19;20127;-79
2022/04/14 04:48:31;;;;;;;7.80;3.73;;;13.90;99.90;;;;;;7393027;19;20142;-78
2022/04/14 04:50:57;;;;;;;5.63;3.40;;;14.00;99.90;;;;;;7396938;19;20122;-77
2022/04/14 04:53:23;;;;;;;7.45;3.70;;;13.90;99.90;;;;;;7392690;19;20138;-76
2022/04/14 04:55:48;;;;;;;6.25;3.60;;;13.80;99.90;;;;;;7392217;19;20307;-77
2022/04/14 04:58:14;;;;;;;5.67;3.40;;;13.50;99.90;;;;;;7394213;19;20615;-78
2022/04/14 05:00:44;;;;;;;6.90;3.70;;;13.70;99.90;;;;;;7392104;19;20150;-76
2022/04/14 05:03:11;;;;;;;6.97;3.88;;;13.80;99.90;;;;;;7395936;19;20202;-78
2022/04/14 05:05:43;;;;;;;7.00;4.07;;;13.90;99.90;;;;;;7395676;19;20145;-76
2022/04/14 05:08:08;;;;;;;5.23;3.63;;;13.90;99.90;;;;;;7394500;19;20134;-76
2022/04/14 05:10:35;;;;;;;4.95;3.78;;;13.60;99.90;;;;;;7393624;19;20138;-75
2022/04/14 05:13:02;;;;;;;8.20;3.70;;;13.70;99.90;;;;;;7396757;19;20542;-75
2022/04/14 05:15:28;;;;;;;6.00;3.70;;;13.70;99.90;;;;;;7399975;19;20146;-76
2022/04/14 05:17:54;;;;;;;5.25;3.80;;;13.70;99.90;;;;;;7393674;19;20154;-77
2022/04/14 05:20:20;;;;;;;6.10;3.90;;;13.80;99.90;;;;;;7394997;19;20135;-78
2022/04/14 05:22:47;;;;;;;5.82;3.65;;;13.80;99.90;;;;;;7398854;19;20219;-75
2022/04/14 05:25:12;;;;;;;5.63;3.90;;;13.90;99.90;;;;;;7393660;19;20153;-75
2022/04/14 05:27:39;;;;;;;6.93;3.50;;;14.00;99.90;;;;;;7392223;19;20135;-79
2022/04/14 05:30:06;;;;;;;4.47;3.43;;;13.90;99.90;;;;;;7391026;19;20155;-75
2022/04/14 05:32:32;;;;;;;7.90;4.07;;;13.80;99.90;;;;;;7389565;19;20142;-79
2022/04/14 05:34:58;;;;;;;7.90;3.55;;;13.70;99.90;;;;;;7392407;19;20495;-77
2022/04/14 05:37:25;;;;;;;7.27;4.07;;;13.90;99.90;;;;;;7392107;19;20161;-76
2022/04/14 05:39:51;;;;;;;7.85;4.55;;;13.80;99.90;;;;;;7394748;19;20141;-84
2022/04/14 05:42:16;;;;;;;7.97;4.03;;;13.60;99.90;;;;;;7387781;19;20154;-79
2022/04/14 05:44:42;;;;;;;5.13;4.03;;;13.40;99.90;;;;;;7394520;19;20513;-75
2022/04/14 05:47:08;;;;;;;9.75;3.95;;;13.20;99.90;;;;;;7391563;19;20822;-75
2022/04/14 05:49:34;;;;;;;7.90;3.83;;;13.60;99.90;;;;;;7389692;19;20644;-77
2022/04/14 05:51:59;;;;;;;9.52;3.97;;;13.80;99.90;;;;;;7387479;19;20154;-78
2022/04/14 05:54:26;;;;;;;5.82;3.83;;;13.90;99.90;;;;;;7387187;19;20139;-74
2022/04/14 05:56:53;;;;;;;8.70;4.78;;;14.10;99.90;;;;;;7388753;19;20134;-77
2022/04/14 05:59:18;;;;;;;9.95;4.50;;;14.00;99.90;;;;;;7388088;19;20150;-78
2022/04/14 06:01:45;;;;;;;10.15;4.00;;;14.20;99.90;;;;;;7388587;19;20119;-76
2022/04/14 06:04:11;;;;;;;6.18;3.80;;;14.30;99.90;;;;;;7394409;19;20469;-77
2022/04/14 06:06:37;;;;;;;9.35;4.13;;;14.10;99.90;;;;;;7388672;19;20134;-76
2022/04/14 06:09:03;;;;;;;9.07;4.82;;;14.10;99.90;;;;;;7391498;19;20137;-75
2022/04/14 06:11:28;;;;;;;8.95;4.40;;;13.90;99.90;;;;;;7392682;19;20169;-75
2022/04/14 06:13:54;;;;;;;6.90;4.78;;;14.00;99.90;;;;;;7387825;19;20139;-77
2022/04/14 06:16:20;;;;;;;8.15;4.95;;;14.20;99.90;;;;;;7389749;19;20129;-76
2022/04/14 06:18:46;;;;;;;8.95;5.43;;;14.10;99.90;;;;;;7390829;19;20824;-79
2022/04/14 06:21:13;;;;;;;9.60;5.95;;;14.00;99.90;;;;;;7391173;19;20464;-77
2022/04/14 06:23:39;;;;;;;10.13;5.88;;;14.20;99.90;;;;;;7390341;19;20558;-73
2022/04/14 06:26:05;;;;;;;10.05;6.40;;;14.00;99.90;;;;;;7391262;19;20131;-78
2022/04/14 06:28:34;;;;;;;13.73;8.85;;;14.30;99.90;;;;;;7388258;19;20198;-78
2022/04/14 06:31:00;;;;;;;11.52;9.38;;;14.60;99.90;;;;;;7385106;19;20162;-77
2022/04/14 06:33:30;;;;;;;17.85;9.70;;;14.60;99.90;;;;;;7385279;19;20470;-75
2022/04/14 06:35:58;;;;;;;15.52;9.98;;;14.70;99.90;;;;;;7386670;19;20215;-76
2022/04/14 06:38:26;;;;;;;12.27;9.50;;;14.80;99.90;;;;;;7382928;19;20134;-79
2022/04/14 06:40:52;;;;;;;16.48;11.10;;;14.80;99.90;;;;;;7386509;19;20166;-78
2022/04/14 06:43:18;;;;;;;18.40;11.38;;;14.90;99.90;;;;;;7391273;19;20536;-75
2022/04/14 06:45:44;;;;;;;14.10;11.10;;;15.00;99.90;;;;;;7388225;19;20143;-79
2022/04/14 06:48:10;;;;;;;18.02;13.35;;;15.20;99.90;;;;;;7386302;19;20138;-78
2022/04/14 06:50:35;;;;;;;16.20;11.40;;;15.30;99.90;;;;;;7392579;19;20142;-76
2022/04/14 06:53:02;;;;;;;20.75;13.05;;;15.40;99.90;;;;;;7384298;19;20148;-76
2022/04/14 06:55:28;;;;;;;19.77;12.70;;;15.70;99.90;;;;;;7388713;19;20496;-79
2022/04/14 06:57:53;;;;;;;18.70;12.60;;;15.80;99.90;;;;;;7384915;19;20517;-77
2022/04/14 07:00:21;;;;;;;16.23;11.70;;;15.90;99.90;;;;;;7384357;19;20130;-76
2022/04/14 07:02:53;;;;;;;17.27;11.35;;;16.00;99.90;;;;;;7393733;19;20246;-77
2022/04/14 07:05:20;;;;;;;15.75;11.27;;;16.20;99.90;;;;;;7392600;19;20186;-78
2022/04/14 07:07:49;;;;;;;16.75;11.30;;;16.20;99.90;;;;;;7389180;19;20127;-77
2022/04/14 07:10:15;;;;;;;15.60;10.57;;;16.30;99.90;;;;;;7388999;19;20138;-77
2022/04/14 07:12:43;;;;;;;18.23;11.30;;;16.40;99.90;;;;;;7388306;19;20169;-77
2022/04/14 07:15:09;;;;;;;14.13;10.10;;;16.50;99.90;;;;;;7388505;19;20138;-79
2022/04/14 07:17:36;;;;;;;17.60;10.65;;;16.70;99.90;;;;;;7387648;19;20675;-79
2022/04/14 07:20:03;;;;;;;19.38;10.70;;;17.00;99.90;;;;;;7391875;19;20122;-75
2022/04/14 07:22:31;;;;;;;18.08;11.15;;;17.30;99.90;;;;;;7386024;19;20182;-75
2022/04/14 07:24:59;;;;;;;17.48;10.70;;;17.30;99.90;;;;;;7389086;19;20140;-77
2022/04/14 07:27:26;;;;;;;16.70;11.10;;;17.30;99.90;;;;;;7387237;19;20158;-75
2022/04/14 07:29:54;;;;;;;22.42;13.60;;;17.30;99.90;;;;;;7385740;19;20561;-78
2022/04/14 07:32:21;;;;;;;17.55;11.88;;;17.30;99.90;;;;;;7389012;19;20496;-76
2022/04/14 07:34:47;;;;;;;16.50;12.90;;;17.50;99.90;;;;;;7394543;19;20186;-80
2022/04/14 07:37:13;;;;;;;16.50;11.30;;;17.70;99.90;;;;;;7393556;19;20139;-80
2022/04/14 07:39:38;;;;;;;15.25;11.52;;;18.10;99.90;;;;;;7385457;19;20141;-74
2022/04/14 07:42:04;;;;;;;14.95;10.77;;;18.40;99.90;;;;;;7386063;19;20246;-75
2022/04/14 07:44:30;;;;;;;18.00;11.65;;;18.60;99.90;;;;;;7385953;19;20154;-78
2022/04/14 07:46:56;;;;;;;15.52;10.70;;;18.90;99.90;;;;;;7386652;19;20151;-79
2022/04/14 07:49:22;;;;;;;14.90;10.98;;;19.00;99.90;;;;;;7386559;19;20147;-80
2022/04/14 07:51:48;;;;;;;14.02;10.25;;;19.10;99.90;;;;;;7385629;19;20153;-80
2022/04/14 07:54:14;;;;;;;13.15;9.98;;;19.40;99.90;;;;;;7386722;19;20142;-80
2022/04/14 07:56:39;;;;;;;14.25;9.32;;;19.50;99.90;;;;;;7390234;19;20197;-80
2022/04/14 07:59:05;;;;;;;15.15;9.95;;;19.70;99.90;;;;;;7392373;19;20140;-76
2022/04/14 08:01:32;;;;;;;12.07;9.30;;;19.80;99.90;;;;;;7389175;19;20127;-75
2022/04/14 08:03:57;;;;;;;16.33;10.18;;;19.40;99.90;;;;;;7388112;19;20138;-75
2022/04/14 08:06:25;;;;;;;14.32;10.30;;;19.10;99.90;;;;;;7387687;19;20127;-81
2022/04/14 08:08:51;;;;;;;15.68;9.30;;;19.00;99.90;;;;;;7387321;19;20131;-80
2022/04/14 08:11:18;;;;;;;13.07;9.30;;;19.00;99.90;;;;;;7396025;19;20510;-76
2022/04/14 08:13:44;;;;;;;13.65;9.70;;;19.10;99.90;;;;;;7391273;19;20131;-82
2022/04/14 08:16:10;;;;;;;12.02;9.95;;;19.30;99.90;;;;;;7394962;19;20488;-75
2022/04/14 08:18:38;;;;;;;10.98;8.55;;;19.60;99.90;;;;;;7399363;19;20134;-79
2022/04/14 08:21:04;;;;;;;12.68;8.95;;;19.90;99.90;;;;;;7406724;19;20152;-81
2022/04/14 08:23:31;;;;;;;14.50;9.75;;;20.30;99.90;;;;;;7407305;19;20147;-79
2022/04/14 08:25:57;;;;;;;14.05;9.73;;;19.80;99.90;;;;;;7405630;19;20953;-80
2022/04/14 08:28:23;;;;;;;14.80;9.35;;;19.60;99.90;;;;;;7403953;19;20202;-75
2022/04/14 08:30:50;;;;;;;11.93;9.05;;;19.40;99.90;;;;;;7404744;19;20130;-81
2022/04/14 08:33:20;;;;;;;15.93;10.32;;;19.30;99.90;;;;;;7405563;19;20135;-81
2022/04/14 08:35:49;;;;;;;16.83;10.27;;;19.30;99.90;;;;;;7406706;19;20139;-75
2022/04/14 08:38:15;;;;;;;15.35;10.30;;;19.60;99.90;;;;;;7401853;19;20617;-76
2022/04/14 08:40:44;;;;;;;17.63;10.18;;;19.50;99.90;;;;;;7396195;19;20195;-79
2022/04/14 08:43:10;;;;;;;14.52;10.50;;;19.40;99.90;;;;;;7404887;19;20511;-82
2022/04/14 08:45:43;;;;;;;16.02;9.63;;;19.20;99.90;;;;;;7401266;19;20127;-76
2022/04/14 08:48:12;;;;;;;14.10;9.93;;;19.00;99.90;;;;;;7391736;19;20221;-76
2022/04/14 08:50:38;;;;;;;13.02;9.55;;;18.90;99.90;;;;;;7393613;19;20127;-80
2022/04/14 08:53:05;;;;;;;14.05;9.63;;;18.80;99.90;;;;;;7391589;19;20187;-76
2022/04/14 08:55:31;;;;;;;17.20;9.88;;;18.60;99.90;;;;;;7391229;19;20614;-76
2022/04/14 08:57:57;;;;;;;14.63;9.80;;;18.60;99.90;;;;;;7391122;19;20518;-81
2022/04/14 09:00:23;;;;;;;11.43;8.90;;;18.60;99.90;;;;;;7392942;19;20154;-79
2022/04/14 09:02:51;;;;;;;12.80;9.18;;;18.60;99.90;;;;;;7396606;19;20759;-76
2022/04/14 09:05:17;;;;;;;13.52;8.90;;;18.70;99.90;;;;;;7401554;19;20145;-76
2022/04/14 09:07:49;;;;;;;14.02;9.68;;;19.00;99.90;;;;;;7399393;19;20145;-75
2022/04/14 09:10:15;;;;;;;16.88;10.73;;;19.20;99.90;;;;;;7392117;19;20246;-80
2022/04/14 09:12:41;;;;;;;12.48;9.82;;;19.10;99.90;;;;;;7392581;19;20135;-76
2022/04/14 09:15:08;;;;;;;17.10;11.52;;;18.90;99.90;;;;;;7390629;19;20131;-75
2022/04/14 09:17:34;;;;;;;18.80;12.70;;;18.90;99.90;;;;;;7390363;19;20141;-79
2022/04/14 09:20:00;;;;;;;12.98;9.30;;;18.80;99.90;;;;;;7392553;19;20158;-76
2022/04/14 09:22:26;;;;;;;11.82;9.40;;;18.80;99.90;;;;;;7389425;19;20138;-76
2022/04/14 09:24:57;;;;;;;12.43;8.77;;;18.80;99.90;;;;;;7394888;19;20163;-76
2022/04/14 09:27:35;;;;;;;11.65;8.43;;;18.90;99.90;;;;;;7399621;19;20130;-77
2022/04/14 09:30:05;;;;;;;13.82;8.48;;;19.20;99.90;;;;;;7404339;19;20563;-78
2022/04/14 09:32:35;;;;;;;13.27;9.13;;;19.50;99.90;;;;;;7392841;19;20138;-79
2022/04/14 09:35:21;;;;;;;12.75;8.68;;;19.60;99.90;;;;;;7392835;19;20199;-79
2022/04/14 09:38:07;;;;;;;15.88;9.40;;;19.60;99.90;;;;;;7389909;19;20150;-77
2022/04/14 09:40:33;;;;;;;11.35;8.65;;;19.80;99.90;;;;;;7390820;19;20165;-76
2022/04/14 09:43:00;;;;;;;13.00;9.57;;;19.80;99.90;;;;;;7390332;19;20126;-75
2022/04/14 09:45:29;;;;;;;13.05;9.73;;;19.80;99.90;;;;;;7391219;19;20135;-80
2022/04/14 09:48:05;;;;;;;16.33;10.05;;;19.80;99.90;;;;;;7390713;19;20503;-76
2022/04/14 09:50:42;;;;;;;16.70;10.23;;;19.80;99.90;;;;;;7405746;19;20126;-78
2022/04/14 09:53:13;;;;;;;12.73;8.82;;;19.60;99.90;;;;;;7396082;19;20155;-80
2022/04/14 09:55:51;;;;;;;14.20;9.85;;;19.60;99.90;;;;;;7391015;19;20139;-76
2022/04/14 09:58:21;;;;;;;11.73;9.93;;;19.60;99.90;;;;;;7391011;19;20141;-79
2022/04/14 10:00:51;;;;;;;14.00;10.18;;;19.40;99.90;;;;;;7390500;19;20134;-78
2022/04/14 10:03:25;;;;;;;12.10;9.60;;;19.40;99.90;;;;;;7393829;19;20179;-79
2022/04/14 10:05:54;;;;;;;13.90;10.20;;;19.30;99.90;;;;;;7391939;19;20146;-75
2022/04/14 10:08:22;;;;;;;13.57;9.13;;;19.40;99.90;;;;;;7397738;19;20166;-78
2022/04/14 10:10:50;;;;;;;13.60;9.80;;;19.50;99.90;;;;;;7398534;19;20158;-78
2022/04/14 10:13:19;;;;;;;15.15;10.23;;;19.80;99.90;;;;;;7402188;19;20130;-78
2022/04/14 10:15:47;;;;;;;15.07;10.55;;;19.80;99.90;;;;;;7392836;19;20130;-76
2022/04/14 10:18:14;;;;;;;14.30;10.02;;;19.70;99.90;;;;;;7390850;19;20135;-76
2022/04/14 10:20:44;;;;;;;13.48;9.30;;;19.60;99.90;;;;;;7392787;19;20126;-77
2022/04/14 10:23:12;;;;;;;26.13;21.60;;;19.70;99.90;;;;;;7389231;19;20139;-78
2022/04/14 10:25:38;;;;;;;10.18;8.57;;;19.90;99.90;;;;;;7395723;19;20178;-75
2022/04/14 10:28:06;;;;;;;9.75;7.35;;;20.10;99.90;;;;;;7393087;19;20486;-75
2022/04/14 10:30:32;;;;;;;16.17;9.40;;;20.20;99.90;;;;;;7389991;19;20142;-73
2022/04/14 10:33:01;;;;;;;18.73;9.05;;;20.30;99.90;;;;;;7388638;19;20131;-76
2022/04/14 10:35:29;;;;;;;11.05;9.20;;;20.30;99.90;;;;;;7396927;19;20509;-79
2022/04/14 10:38:01;;;;;;;17.08;9.43;;;20.10;99.90;;;;;;7390982;19;20127;-79
2022/04/14 10:40:29;;;;;;;12.13;8.93;;;20.10;99.90;;;;;;7388633;19;20146;-76
2022/04/14 10:42:56;;;;;;;10.60;8.85;;;20.00;99.90;;;;;;7388351;19;20681;-78
2022/04/14 10:45:23;;;;;;;11.70;8.63;;;20.00;99.90;;;;;;7389169;19;20445;-79
2022/04/14 10:47:54;;;;;;;9.68;8.05;;;20.10;99.90;;;;;;7388194;19;20208;-77
2022/04/14 10:50:21;;;;;;;14.68;8.48;;;20.20;99.90;;;;;;7389555;19;20141;-78
2022/04/14 10:53:03;;;;;;;9.63;7.40;;;20.30;99.90;;;;;;7388253;19;20146;-78
2022/04/14 10:55:44;;;;;;;13.57;8.93;;;20.40;99.90;;;;;;7404697;19;20131;-80
2022/04/14 10:58:36;;;;;;;10.93;8.60;;;20.50;99.90;;;;;;7395640;19;20570;-77
2022/04/14 11:01:03;;;;;;;12.15;7.90;;;20.40;99.90;;;;;;7388338;19;20154;-79
2022/04/14 11:03:50;;;;;;;11.77;7.60;;;20.40;99.90;;;;;;7393895;19;20588;-77
2022/04/14 11:06:40;;;;;;;12.23;8.38;;;20.50;99.90;;;;;;7390175;19;20149;-76
2022/04/14 11:09:25;;;;;;;9.30;7.60;;;20.50;99.90;;;;;;7390794;19;20623;-81
2022/04/14 11:12:01;;;;;;;11.02;7.93;;;20.50;99.90;;;;;;7396020;19;20146;-79
2022/04/14 11:14:35;;;;;;;14.70;8.25;;;20.40;99.90;;;;;;7391054;19;20130;-79
2022/04/14 11:17:00;;;;;;;11.00;7.00;;;20.40;99.90;;;;;;7396269;19;20122;-78
2022/04/14 11:19:27;;;;;;;11.73;7.78;;;20.50;99.90;;;;;;7402937;19;20146;-78
2022/04/14 11:24:40;;;;;;;11.65;8.50;;;21.00;99.90;;;;;;7391525;19;20131;-76
2022/04/14 11:27:22;;;;;;;12.35;8.10;;;21.00;99.90;;;;;;7389394;19;20293;-78
2022/04/14 11:29:51;;;;;;;10.27;7.68;;;21.00;99.90;;;;;;7387628;19;20162;-79
2022/04/14 11:32:38;;;;;;;10.68;7.50;;;21.00;99.90;;;;;;7387437;19;20126;-78
2022/04/14 11:35:17;;;;;;;13.48;8.48;;;21.00;99.90;;;;;;7387958;19;20142;-78
2022/04/14 11:37:45;;;;;;;10.93;7.57;;;21.10;99.90;;;;;;7393549;19;20130;-76
2022/04/14 11:40:18;;;;;;;10.48;6.93;;;21.10;99.90;;;;;;7399673;19;20131;-77
2022/04/14 11:42:49;;;;;;;9.48;7.00;;;21.10;99.90;;;;;;7393575;19;20142;-75
2022/04/14 11:45:26;;;;;;;13.57;7.93;;;21.20;99.90;;;;;;7392395;19;20148;-78
2022/04/14 11:47:59;;;;;;;11.23;8.45;;;21.20;99.90;;;;;;7393210;19;20142;-77
2022/04/14 11:50:29;;;;;;;13.30;8.27;;;21.30;99.90;;;;;;7395345;19;20129;-77
2022/04/14 11:52:59;;;;;;;11.85;8.88;;;21.10;99.90;;;;;;7395932;19;20130;-76
2022/04/14 11:55:39;;;;;;;10.55;8.55;;;21.10;99.90;;;;;;7393703;19;20156;-75
2022/04/14 11:58:06;;;;;;;15.43;8.38;;;21.30;99.90;;;;;;7395408;19;20133;-77
2022/04/14 12:00:41;;;;;;;12.43;9.05;;;21.20;99.90;;;;;;7395685;19;20143;-79
2022/04/14 12:03:07;;;;;;;12.90;8.07;;;21.20;99.90;;;;;;7410247;19;20127;-77
2022/04/14 12:05:33;;;;;;;11.32;8.32;;;21.20;99.90;;;;;;7397433;19;20138;-76
2022/04/14 12:08:10;;;;;;;10.43;8.73;;;21.30;99.90;;;;;;7393281;19;20621;-77
2022/04/14 12:10:36;;;;;;;14.32;9.43;;;21.40;99.90;;;;;;7394155;19;20131;-76
2022/04/14 12:13:10;;;;;;;12.98;8.32;;;21.40;99.90;;;;;;7394558;19;20154;-76
2022/04/14 12:15:36;;;;;;;14.77;8.60;;;21.50;99.90;;;;;;7394068;19;20126;-79
2022/04/14 12:18:10;;;;;;;10.63;8.23;;;21.50;99.90;;;;;;7394905;19;20436;-79
2022/04/14 12:20:40;;;;;;;12.13;8.85;;;21.60;99.90;;;;;;7392927;19;20480;-79
2022/04/14 12:23:10;;;;;;;12.57;8.48;;;21.60;99.90;;;;;;7392991;19;20624;-78
2022/04/14 12:25:36;;;;;;;14.52;9.38;;;21.60;99.90;;;;;;7404381;19;20130;-75
2022/04/14 12:28:03;;;;;;;12.90;8.73;;;21.50;99.90;;;;;;7396120;19;20668;-76
2022/04/14 12:30:31;;;;;;;12.57;9.05;;;21.40;99.90;;;;;;7394055;19;20182;-77
2022/04/14 12:33:04;;;;;;;11.70;9.38;;;21.40;99.90;;;;;;7391734;19;20128;-79
2022/04/14 12:35:42;;;;;;;9.23;7.00;;;21.30;99.90;;;;;;7394314;19;20505;-76
2022/04/14 12:38:25;;;;;;;13.23;8.95;;;21.20;99.90;;;;;;7393735;19;20613;-77
2022/04/14 12:41:00;;;;;;;13.13;8.10;;;21.40;99.90;;;;;;7393281;19;20721;-79
2022/04/14 12:43:41;;;;;;;12.95;8.32;;;21.60;99.90;;;;;;7396735;19;20134;-77
2022/04/14 12:46:41;;;;;;;13.07;9.00;;;21.50;99.90;;;;;;7402590;19;20496;-76
2022/04/14 12:49:17;;;;;;;13.27;8.65;;;21.50;99.90;;;;;;7389920;19;20164;-79